PROFILE

 METAR AND TAF INFORMATION
ADDS - METARS form results

(0448 UTC 13 July 2020)
http://aviationweather.gov/metar/data/
 
FNLU 130400Z VRB03KT 7000 FEW017 19/18 Q1013
TAF FNLU 122300Z 1300/1406 18007KT 9000 SCT020 TEMPO 1303/1308 VRB03KT 8000 BKN020 TEMPO 1314/1318 28010KT 9999 FEW020 

 AIRPORT MAP

 RUNWAY INFORMATION
Runway 05 Runway length 12190 ft Runway width 148 ft
Runway elevation 235 ft Runway displaced threshold 0 ft Runway heading 47
Runway 23 Runway length 12190 ft Runway width 148 ft
Runway elevation 232 ft Runway displaced threshold 500 ft Runway heading 227
Runway 07 Runway length 8530 ft Runway width 197 ft
Runway elevation 240 ft Runway displaced threshold 0 ft Runway heading 68
Runway 25 Runway length 8530 ft Runway width 197 ft
Runway elevation 223 ft Runway displaced threshold 0 ft Runway heading 248

 AIRPORT FREQUENCIES
Type A/G Name A/G VOICE Frequency 129.5 MHZ
Type APP Name APP Frequency 119.1 MHZ
Type GND Name GND Frequency 121.9 MHZ
Type TWR Name TWR Frequency 118.1 MHZ

 AIRPORT NEAR NAVIGATION AIDS
Type NDB Name Luanda Frequency 258 KHZ
Type VOR-DME Name Luanda Frequency 112700 KHZ